sensor_id;sensor_type;location;lat;lon;timestamp;pressure;altitude;pressure_sealevel;temperature;humidity
21623;BME280;10973;46.706;12.340;2023-01-28T00:00:54;86893.28;;;-3.32;56.93
21623;BME280;10973;46.706;12.340;2023-01-28T00:03:21;86893.28;;;-3.32;56.71
21623;BME280;10973;46.706;12.340;2023-01-28T00:05:48;86889.19;;;-3.33;57.02
21623;BME280;10973;46.706;12.340;2023-01-28T00:08:16;86895.09;;;-3.33;56.73
21623;BME280;10973;46.706;12.340;2023-01-28T00:10:43;86883.13;;;-3.37;56.79
21623;BME280;10973;46.706;12.340;2023-01-28T00:13:12;86881.00;;;-3.44;56.58
21623;BME280;10973;46.706;12.340;2023-01-28T00:15:39;86881.78;;;-3.43;56.88
21623;BME280;10973;46.706;12.340;2023-01-28T00:18:06;86884.16;;;-3.55;56.82
21623;BME280;10973;46.706;12.340;2023-01-28T00:20:34;86886.75;;;-3.47;56.14
21623;BME280;10973;46.706;12.340;2023-01-28T00:23:01;86886.59;;;-3.50;56.55
21623;BME280;10973;46.706;12.340;2023-01-28T00:25:29;86896.13;;;-3.51;56.17
21623;BME280;10973;46.706;12.340;2023-01-28T00:27:57;86897.66;;;-3.50;56.49
21623;BME280;10973;46.706;12.340;2023-01-28T00:30:24;86904.75;;;-3.55;56.62
21623;BME280;10973;46.706;12.340;2023-01-28T00:32:53;86905.06;;;-3.57;56.38
21623;BME280;10973;46.706;12.340;2023-01-28T00:35:20;86897.34;;;-3.57;56.17
21623;BME280;10973;46.706;12.340;2023-01-28T00:37:47;86892.34;;;-3.62;55.98
21623;BME280;10973;46.706;12.340;2023-01-28T00:40:15;86894.59;;;-3.61;56.13
21623;BME280;10973;46.706;12.340;2023-01-28T00:42:42;86888.84;;;-3.66;56.13
21623;BME280;10973;46.706;12.340;2023-01-28T00:45:10;86890.06;;;-3.64;56.32
21623;BME280;10973;46.706;12.340;2023-01-28T00:47:37;86885.19;;;-3.65;56.34
21623;BME280;10973;46.706;12.340;2023-01-28T00:50:05;86887.31;;;-3.76;55.97
21623;BME280;10973;46.706;12.340;2023-01-28T00:52:33;86889.75;;;-3.71;56.44
21623;BME280;10973;46.706;12.340;2023-01-28T00:55:00;86888.66;;;-3.70;56.03
21623;BME280;10973;46.706;12.340;2023-01-28T00:57:27;86897.13;;;-3.78;56.35
21623;BME280;10973;46.706;12.340;2023-01-28T00:59:54;86900.16;;;-3.76;55.59
21623;BME280;10973;46.706;12.340;2023-01-28T01:02:22;86910.28;;;-3.79;55.47
21623;BME280;10973;46.706;12.340;2023-01-28T01:04:49;86918.91;;;-3.84;55.81
21623;BME280;10973;46.706;12.340;2023-01-28T01:07:16;86928.13;;;-3.91;55.13
21623;BME280;10973;46.706;12.340;2023-01-28T01:09:44;86924.34;;;-3.94;55.58
21623;BME280;10973;46.706;12.340;2023-01-28T01:12:11;86930.38;;;-3.98;55.30
21623;BME280;10973;46.706;12.340;2023-01-28T01:14:38;86927.47;;;-4.05;55.41
21623;BME280;10973;46.706;12.340;2023-01-28T01:17:05;86933.50;;;-4.10;55.44
21623;BME280;10973;46.706;12.340;2023-01-28T01:19:32;86934.72;;;-4.07;55.31
21623;BME280;10973;46.706;12.340;2023-01-28T01:22:00;86936.84;;;-4.09;55.36
21623;BME280;10973;46.706;12.340;2023-01-28T01:24:27;86936.06;;;-4.10;54.98
21623;BME280;10973;46.706;12.340;2023-01-28T01:26:54;86933.81;;;-4.11;54.86
21623;BME280;10973;46.706;12.340;2023-01-28T01:29:21;86931.81;;;-4.14;54.88
21623;BME280;10973;46.706;12.340;2023-01-28T01:31:49;86928.31;;;-4.18;55.07
21623;BME280;10973;46.706;12.340;2023-01-28T01:34:16;86926.78;;;-4.19;54.96
21623;BME280;10973;46.706;12.340;2023-01-28T01:36:43;86933.25;;;-4.30;54.87
21623;BME280;10973;46.706;12.340;2023-01-28T01:39:13;86941.25;;;-4.32;55.04
21623;BME280;10973;46.706;12.340;2023-01-28T01:41:41;86931.50;;;-4.44;54.50
21623;BME280;10973;46.706;12.340;2023-01-28T01:44:55;86937.13;;;-4.42;54.66
21623;BME280;10973;46.706;12.340;2023-01-28T01:47:59;86938.31;;;-4.48;54.59
21623;BME280;10973;46.706;12.340;2023-01-28T01:50:42;86935.53;;;-4.51;54.15
21623;BME280;10973;46.706;12.340;2023-01-28T01:53:16;86935.09;;;-4.53;54.35
21623;BME280;10973;46.706;12.340;2023-01-28T01:55:49;86939.00;;;-4.56;54.27
21623;BME280;10973;46.706;12.340;2023-01-28T01:58:20;86938.22;;;-4.56;54.05
21623;BME280;10973;46.706;12.340;2023-01-28T02:00:50;86936.06;;;-4.63;53.67
21623;BME280;10973;46.706;12.340;2023-01-28T02:03:27;86940.28;;;-4.67;53.80
21623;BME280;10973;46.706;12.340;2023-01-28T02:05:58;86941.63;;;-4.69;54.52
21623;BME280;10973;46.706;12.340;2023-01-28T02:08:25;86938.13;;;-4.73;53.93
21623;BME280;10973;46.706;12.340;2023-01-28T02:11:01;86931.75;;;-4.76;53.80
21623;BME280;10973;46.706;12.340;2023-01-28T02:13:40;86938.25;;;-4.78;54.00
21623;BME280;10973;46.706;12.340;2023-01-28T02:16:10;86939.69;;;-4.86;54.07
21623;BME280;10973;46.706;12.340;2023-01-28T02:18:38;86941.78;;;-4.88;54.13
21623;BME280;10973;46.706;12.340;2023-01-28T02:33:40;86940.81;;;-5.36;53.12
21623;BME280;10973;46.706;12.340;2023-01-28T02:36:39;86949.84;;;-5.39;53.62
21623;BME280;10973;46.706;12.340;2023-01-28T02:39:15;86945.00;;;-5.40;52.67
21623;BME280;10973;46.706;12.340;2023-01-28T02:42:04;86941.59;;;-5.49;53.08
21623;BME280;10973;46.706;12.340;2023-01-28T02:44:32;86949.41;;;-5.54;53.20
21623;BME280;10973;46.706;12.340;2023-01-28T02:46:59;86953.47;;;-5.53;52.74
21623;BME280;10973;46.706;12.340;2023-01-28T02:49:39;86946.84;;;-5.54;52.65
21623;BME280;10973;46.706;12.340;2023-01-28T02:52:35;86947.22;;;-5.61;52.45
21623;BME280;10973;46.706;12.340;2023-01-28T03:04:02;86940.81;;;-5.86;52.37
21623;BME280;10973;46.706;12.340;2023-01-28T03:06:43;86952.59;;;-5.85;52.48
21623;BME280;10973;46.706;12.340;2023-01-28T03:09:14;86951.19;;;-5.91;51.91
21623;BME280;10973;46.706;12.340;2023-01-28T03:11:49;86954.59;;;-5.95;52.18
21623;BME280;10973;46.706;12.340;2023-01-28T03:14:19;86950.97;;;-6.08;52.32
21623;BME280;10973;46.706;12.340;2023-01-28T03:16:50;86964.19;;;-6.01;52.37
21623;BME280;10973;46.706;12.340;2023-01-28T03:19:18;86961.16;;;-6.03;52.19
21623;BME280;10973;46.706;12.340;2023-01-28T03:21:48;86959.72;;;-6.09;51.80
21623;BME280;10973;46.706;12.340;2023-01-28T03:24:46;86960.38;;;-6.17;52.09
21623;BME280;10973;46.706;12.340;2023-01-28T03:27:29;86958.88;;;-6.18;52.18
21623;BME280;10973;46.706;12.340;2023-01-28T03:30:08;86961.53;;;-6.23;51.71
21623;BME280;10973;46.706;12.340;2023-01-28T03:32:39;86958.66;;;-6.21;51.94
21623;BME280;10973;46.706;12.340;2023-01-28T03:35:11;86956.94;;;-6.26;52.13
21623;BME280;10973;46.706;12.340;2023-01-28T03:37:42;86959.59;;;-6.31;51.91
21623;BME280;10973;46.706;12.340;2023-01-28T03:40:19;86965.78;;;-6.32;51.66
21623;BME280;10973;46.706;12.340;2023-01-28T03:42:46;86973.53;;;-6.37;51.67
21623;BME280;10973;46.706;12.340;2023-01-28T03:45:14;86979.59;;;-6.46;51.67
21623;BME280;10973;46.706;12.340;2023-01-28T03:47:41;86983.47;;;-6.49;51.09
21623;BME280;10973;46.706;12.340;2023-01-28T03:50:09;86979.88;;;-6.48;51.44
21623;BME280;10973;46.706;12.340;2023-01-28T03:52:37;86989.66;;;-6.50;51.42
21623;BME280;10973;46.706;12.340;2023-01-28T03:55:05;86996.88;;;-6.52;51.84
21623;BME280;10973;46.706;12.340;2023-01-28T03:57:32;86996.47;;;-6.59;51.59
21623;BME280;10973;46.706;12.340;2023-01-28T03:59:59;86996.47;;;-6.59;51.51
21623;BME280;10973;46.706;12.340;2023-01-28T04:02:26;87005.19;;;-6.60;51.02
21623;BME280;10973;46.706;12.340;2023-01-28T04:04:54;87002.16;;;-6.62;51.43
21623;BME280;10973;46.706;12.340;2023-01-28T04:07:21;87001.66;;;-6.64;50.99
21623;BME280;10973;46.706;12.340;2023-01-28T04:09:48;87001.38;;;-6.63;51.31
21623;BME280;10973;46.706;12.340;2023-01-28T04:12:15;86996.84;;;-6.66;51.59
21623;BME280;10973;46.706;12.340;2023-01-28T04:14:43;87001.38;;;-6.63;51.50
21623;BME280;10973;46.706;12.340;2023-01-28T04:17:10;87007.28;;;-6.62;51.08
21623;BME280;10973;46.706;12.340;2023-01-28T04:19:37;87010.47;;;-6.70;50.97
21623;BME280;10973;46.706;12.340;2023-01-28T04:22:09;87017.19;;;-6.74;51.33
21623;BME280;10973;46.706;12.340;2023-01-28T04:24:36;87011.31;;;-6.75;51.32
21623;BME280;10973;46.706;12.340;2023-01-28T04:27:04;87009.94;;;-6.86;51.23
21623;BME280;10973;46.706;12.340;2023-01-28T04:29:31;87014.78;;;-6.84;51.06
21623;BME280;10973;46.706;12.340;2023-01-28T04:31:58;87014.78;;;-6.84;50.95
21623;BME280;10973;46.706;12.340;2023-01-28T04:34:25;87015.56;;;-6.84;50.84
21623;BME280;10973;46.706;12.340;2023-01-28T04:36:53;87017.59;;;-6.86;51.12
21623;BME280;10973;46.706;12.340;2023-01-28T04:39:20;87020.94;;;-6.85;51.10
21623;BME280;10973;46.706;12.340;2023-01-28T04:41:47;87008.97;;;-6.90;51.04
21623;BME280;10973;46.706;12.340;2023-01-28T04:44:14;87018.94;;;-6.88;51.30
21623;BME280;10973;46.706;12.340;2023-01-28T04:46:41;87011.59;;;-6.95;50.94
21623;BME280;10973;46.706;12.340;2023-01-28T04:49:09;87020.81;;;-6.94;51.07
21623;BME280;10973;46.706;12.340;2023-01-28T04:51:36;87028.00;;;-6.96;50.89
21623;BME280;10973;46.706;12.340;2023-01-28T04:54:03;87033.13;;;-6.96;50.67
21623;BME280;10973;46.706;12.340;2023-01-28T04:56:31;87039.16;;;-7.05;50.40
21623;BME280;10973;46.706;12.340;2023-01-28T04:58:58;87038.88;;;-7.04;50.37
21623;BME280;10973;46.706;12.340;2023-01-28T05:01:25;87041.03;;;-7.11;50.76
21623;BME280;10973;46.706;12.340;2023-01-28T05:03:53;87045.38;;;-7.11;50.94
21623;BME280;10973;46.706;12.340;2023-01-28T05:06:20;87042.59;;;-7.15;50.28
21623;BME280;10973;46.706;12.340;2023-01-28T05:08:47;87046.75;;;-7.19;49.91
21623;BME280;10973;46.706;12.340;2023-01-28T05:11:14;87051.09;;;-7.19;50.48
21623;BME280;10973;46.706;12.340;2023-01-28T05:13:41;87046.28;;;-7.21;51.22
21623;BME280;10973;46.706;12.340;2023-01-28T05:16:09;87047.88;;;-7.25;50.66
21623;BME280;10973;46.706;12.340;2023-01-28T05:18:36;87053.25;;;-7.27;50.54
21623;BME280;10973;46.706;12.340;2023-01-28T05:21:03;87053.34;;;-7.32;50.75
21623;BME280;10973;46.706;12.340;2023-01-28T05:23:31;87061.97;;;-7.28;50.75
21623;BME280;10973;46.706;12.340;2023-01-28T05:25:58;87062.03;;;-7.33;50.24
21623;BME280;10973;46.706;12.340;2023-01-28T05:28:25;87065.06;;;-7.31;50.91
21623;BME280;10973;46.706;12.340;2023-01-28T05:30:53;87066.13;;;-7.32;50.52
21623;BME280;10973;46.706;12.340;2023-01-28T05:33:20;87066.66;;;-7.35;50.65
21623;BME280;10973;46.706;12.340;2023-01-28T05:35:47;87070.72;;;-7.34;50.92
21623;BME280;10973;46.706;12.340;2023-01-28T05:38:14;87078.41;;;-7.34;51.33
21623;BME280;10973;46.706;12.340;2023-01-28T05:40:42;87075.38;;;-7.36;50.78
21623;BME280;10973;46.706;12.340;2023-01-28T05:43:09;87075.38;;;-7.36;50.81
21623;BME280;10973;46.706;12.340;2023-01-28T05:45:36;87076.91;;;-7.35;51.03
21623;BME280;10973;46.706;12.340;2023-01-28T05:48:04;87079.41;;;-7.30;51.22
21623;BME280;10973;46.706;12.340;2023-01-28T05:50:32;87076.13;;;-7.35;50.52
21623;BME280;10973;46.706;12.340;2023-01-28T05:52:59;87081.25;;;-7.35;50.33
21623;BME280;10973;46.706;12.340;2023-01-28T05:55:26;87082.84;;;-7.39;50.49
21623;BME280;10973;46.706;12.340;2023-01-28T05:57:53;87089.31;;;-7.47;50.49
21623;BME280;10973;46.706;12.340;2023-01-28T06:00:21;87086.75;;;-7.47;49.78
21623;BME280;10973;46.706;12.340;2023-01-28T06:02:51;87095.00;;;-7.50;50.35
21623;BME280;10973;46.706;12.340;2023-01-28T06:05:19;87090.41;;;-7.53;50.40
21623;BME280;10973;46.706;12.340;2023-01-28T06:07:47;87094.28;;;-7.55;50.60
21623;BME280;10973;46.706;12.340;2023-01-28T06:10:15;87093.34;;;-7.64;50.52
21623;BME280;10973;46.706;12.340;2023-01-28T06:12:44;87097.94;;;-7.61;50.49
21623;BME280;10973;46.706;12.340;2023-01-28T06:15:11;87098.69;;;-7.61;50.78
21623;BME280;10973;46.706;12.340;2023-01-28T06:17:38;87108.41;;;-7.63;50.03
21623;BME280;10973;46.706;12.340;2023-01-28T06:20:06;87106.16;;;-7.64;50.52
21623;BME280;10973;46.706;12.340;2023-01-28T06:22:34;87102.81;;;-7.65;51.08
21623;BME280;10973;46.706;12.340;2023-01-28T06:25:02;87103.09;;;-7.66;50.74
21623;BME280;10973;46.706;12.340;2023-01-28T06:27:29;87107.69;;;-7.63;50.51
21623;BME280;10973;46.706;12.340;2023-01-28T06:29:56;87105.13;;;-7.63;50.26
21623;BME280;10973;46.706;12.340;2023-01-28T06:32:23;87105.94;;;-7.68;50.63
21623;BME280;10973;46.706;12.340;2023-01-28T06:34:51;87111.88;;;-7.72;50.71
21623;BME280;10973;46.706;12.340;2023-01-28T06:37:18;87112.34;;;-7.70;50.66
21623;BME280;10973;46.706;12.340;2023-01-28T06:39:45;87114.16;;;-7.71;50.25
21623;BME280;10973;46.706;12.340;2023-01-28T06:42:12;87115.44;;;-7.73;50.70
21623;BME280;10973;46.706;12.340;2023-01-28T06:44:40;87121.38;;;-7.78;50.45
21623;BME280;10973;46.706;12.340;2023-01-28T06:47:07;87119.84;;;-7.79;50.46
21623;BME280;10973;46.706;12.340;2023-01-28T06:49:34;87120.88;;;-7.80;50.69
21623;BME280;10973;46.706;12.340;2023-01-28T06:52:02;87126.00;;;-7.80;50.71
21623;BME280;10973;46.706;12.340;2023-01-28T06:54:29;87130.66;;;-7.87;50.39
21623;BME280;10973;46.706;12.340;2023-01-28T06:56:57;87134.03;;;-7.91;50.02
21623;BME280;10973;46.706;12.340;2023-01-28T06:59:24;87137.06;;;-7.89;50.89
21623;BME280;10973;46.706;12.340;2023-01-28T07:01:52;87144.47;;;-7.88;50.77
21623;BME280;10973;46.706;12.340;2023-01-28T07:04:19;87141.97;;;-7.93;50.85
21623;BME280;10973;46.706;12.340;2023-01-28T07:06:46;87146.28;;;-7.88;50.70
21623;BME280;10973;46.706;12.340;2023-01-28T07:09:13;87149.59;;;-7.88;50.81
21623;BME280;10973;46.706;12.340;2023-01-28T07:11:41;87152.41;;;-7.89;51.08
21623;BME280;10973;46.706;12.340;2023-01-28T07:14:08;87149.38;;;-7.91;50.96
21623;BME280;10973;46.706;12.340;2023-01-28T07:16:35;87153.72;;;-7.92;50.59
21623;BME280;10973;46.706;12.340;2023-01-28T07:19:03;87160.56;;;-7.87;50.94
21623;BME280;10973;46.706;12.340;2023-01-28T07:21:30;87158.03;;;-7.87;51.31
21623;BME280;10973;46.706;12.340;2023-01-28T07:23:57;87161.34;;;-7.87;50.83
21623;BME280;10973;46.706;12.340;2023-01-28T07:26:25;87167.22;;;-7.86;50.78
21623;BME280;10973;46.706;12.340;2023-01-28T07:28:52;87161.13;;;-7.90;50.69
21623;BME280;10973;46.706;12.340;2023-01-28T07:31:19;87163.41;;;-7.89;50.84
21623;BME280;10973;46.706;12.340;2023-01-28T07:33:47;87161.88;;;-7.90;51.15
21623;BME280;10973;46.706;12.340;2023-01-28T07:36:14;87152.38;;;-7.84;51.32
21623;BME280;10973;46.706;12.340;2023-01-28T07:38:41;87142.84;;;-7.79;51.48
21623;BME280;10973;46.706;12.340;2023-01-28T07:41:08;87155.28;;;-7.67;51.46
21623;BME280;10973;46.706;12.340;2023-01-28T07:43:35;87151.16;;;-7.63;51.69
21623;BME280;10973;46.706;12.340;2023-01-28T07:46:03;87157.47;;;-7.56;50.99
21623;BME280;10973;46.706;12.340;2023-01-28T07:48:30;87154.56;;;-7.49;51.48
21623;BME280;10973;46.706;12.340;2023-01-28T07:50:58;87155.06;;;-7.47;51.80
21623;BME280;10973;46.706;12.340;2023-01-28T07:53:26;87162.50;;;-7.46;51.20
21623;BME280;10973;46.706;12.340;2023-01-28T07:55:59;87160.56;;;-7.35;51.63
21623;BME280;10973;46.706;12.340;2023-01-28T07:58:26;87152.56;;;-7.29;51.90
21623;BME280;10973;46.706;12.340;2023-01-28T08:00:57;87156.81;;;-7.19;51.70
21623;BME280;10973;46.706;12.340;2023-01-28T08:03:26;87152.63;;;-7.10;52.33
21623;BME280;10973;46.706;12.340;2023-01-28T08:05:55;87158.44;;;-7.04;51.70
21623;BME280;10973;46.706;12.340;2023-01-28T08:08:24;87149.72;;;-7.03;52.16
21623;BME280;10973;46.706;12.340;2023-01-28T08:10:52;87160.94;;;-6.99;51.94
21623;BME280;10973;46.706;12.340;2023-01-28T08:13:20;87159.13;;;-6.99;51.56
21623;BME280;10973;46.706;12.340;2023-01-28T08:15:47;87164.66;;;-7.10;51.53
21623;BME280;10973;46.706;12.340;2023-01-28T08:18:15;87169.06;;;-7.16;51.45
21623;BME280;10973;46.706;12.340;2023-01-28T08:20:43;87171.91;;;-7.17;51.70
21623;BME280;10973;46.706;12.340;2023-01-28T08:23:15;87174.44;;;-7.17;51.88
21623;BME280;10973;46.706;12.340;2023-01-28T08:25:44;87180.56;;;-7.13;52.02
21623;BME280;10973;46.706;12.340;2023-01-28T08:28:13;87185.22;;;-7.15;51.80
21623;BME280;10973;46.706;12.340;2023-01-28T08:30:41;87181.50;;;-7.04;51.65
21623;BME280;10973;46.706;12.340;2023-01-28T08:33:12;87189.81;;;-6.94;52.36
21623;BME280;10973;46.706;12.340;2023-01-28T08:35:40;87183.03;;;-6.85;52.48
21623;BME280;10973;46.706;12.340;2023-01-28T08:38:10;87179.59;;;-6.75;52.14
21623;BME280;10973;46.706;12.340;2023-01-28T08:40:39;87183.97;;;-6.76;52.37
21623;BME280;10973;46.706;12.340;2023-01-28T08:43:06;87183.75;;;-6.61;52.57
21623;BME280;10973;46.706;12.340;2023-01-28T08:45:34;87180.25;;;-6.46;53.22
21623;BME280;10973;46.706;12.340;2023-01-28T08:48:04;87174.72;;;-6.34;53.33
21623;BME280;10973;46.706;12.340;2023-01-28T08:50:35;87170.97;;;-6.23;52.85
21623;BME280;10973;46.706;12.340;2023-01-28T08:53:16;87177.88;;;-6.05;52.67
21623;BME280;10973;46.706;12.340;2023-01-28T08:55:45;87179.78;;;-5.97;53.00
21623;BME280;10973;46.706;12.340;2023-01-28T08:58:16;87180.91;;;-5.85;52.59
21623;BME280;10973;46.706;12.340;2023-01-28T09:00:45;87183.91;;;-5.83;52.74
21623;BME280;10973;46.706;12.340;2023-01-28T09:03:12;87189.81;;;-5.82;52.63
21623;BME280;10973;46.706;12.340;2023-01-28T09:05:39;87188.00;;;-5.82;52.45
21623;BME280;10973;46.706;12.340;2023-01-28T09:08:13;87192.31;;;-5.77;52.89
21623;BME280;10973;46.706;12.340;2023-01-28T09:10:41;87183.56;;;-5.76;53.12
21623;BME280;10973;46.706;12.340;2023-01-28T09:13:12;87187.00;;;-5.67;53.08
21623;BME280;10973;46.706;12.340;2023-01-28T09:15:41;87192.59;;;-5.65;53.31
21623;BME280;10973;46.706;12.340;2023-01-28T09:18:09;87195.28;;;-5.56;53.67
21623;BME280;10973;46.706;12.340;2023-01-28T09:20:37;87192.28;;;-5.45;53.55
21623;BME280;10973;46.706;12.340;2023-01-28T09:23:05;87201.91;;;-5.37;52.99
21623;BME280;10973;46.706;12.340;2023-01-28T09:25:33;87192.69;;;-5.24;53.24
21623;BME280;10973;46.706;12.340;2023-01-28T09:28:01;87195.09;;;-5.14;53.61
21623;BME280;10973;46.706;12.340;2023-01-28T09:30:29;87188.66;;;-4.98;53.45
21623;BME280;10973;46.706;12.340;2023-01-28T09:32:57;87184.28;;;-4.84;53.17
21623;BME280;10973;46.706;12.340;2023-01-28T09:35:24;87186.72;;;-4.79;53.29
21623;BME280;10973;46.706;12.340;2023-01-28T09:37:57;87198.84;;;-4.66;53.50
21623;BME280;10973;46.706;12.340;2023-01-28T09:40:44;87199.56;;;-4.52;53.12
21623;BME280;10973;46.706;12.340;2023-01-28T09:43:43;87199.84;;;-4.40;52.57
21623;BME280;10973;46.706;12.340;2023-01-28T09:46:15;87206.78;;;-4.26;53.21
21623;BME280;10973;46.706;12.340;2023-01-28T09:48:47;87191.53;;;-4.09;53.02
21623;BME280;10973;46.706;12.340;2023-01-28T09:51:39;87186.69;;;-3.89;52.89
21623;BME280;10973;46.706;12.340;2023-01-28T09:56:51;87171.34;;;-3.49;52.29
21623;BME280;10973;46.706;12.340;2023-01-28T09:59:22;87169.94;;;-3.33;51.99
21623;BME280;10973;46.706;12.340;2023-01-28T10:01:54;87165.19;;;-3.18;52.36
21623;BME280;10973;46.706;12.340;2023-01-28T10:04:43;87155.56;;;-3.04;51.72
21623;BME280;10973;46.706;12.340;2023-01-28T10:07:31;87152.28;;;-2.96;52.03
21623;BME280;10973;46.706;12.340;2023-01-28T10:16:07;87142.78;;;-2.69;51.38
21623;BME280;10973;46.706;12.340;2023-01-28T10:18:48;87151.91;;;-2.63;51.80
21623;BME280;10973;46.706;12.340;2023-01-28T10:26:33;87145.47;;;-2.44;51.48
21623;BME280;10973;46.706;12.340;2023-01-28T10:29:14;87135.28;;;-2.40;51.00
21623;BME280;10973;46.706;12.340;2023-01-28T10:34:50;87140.44;;;-2.32;50.99
21623;BME280;10973;46.706;12.340;2023-01-28T10:37:19;87143.34;;;-2.25;51.16
21623;BME280;10973;46.706;12.340;2023-01-28T10:39:47;87141.41;;;-2.19;51.02
21623;BME280;10973;46.706;12.340;2023-01-28T10:42:37;87139.00;;;-2.07;50.66
21623;BME280;10973;46.706;12.340;2023-01-28T10:45:24;87135.50;;;-2.02;50.43
21623;BME280;10973;46.706;12.340;2023-01-28T10:48:04;87127.00;;;-1.94;50.47
21623;BME280;10973;46.706;12.340;2023-01-28T10:50:33;87124.13;;;-1.84;50.16
21623;BME280;10973;46.706;12.340;2023-01-28T10:53:04;87121.66;;;-1.72;50.17
21623;BME280;10973;46.706;12.340;2023-01-28T10:55:54;87125.78;;;-1.63;49.58
21623;BME280;10973;46.706;12.340;2023-01-28T10:58:28;87117.28;;;-1.55;48.94
21623;BME280;10973;46.706;12.340;2023-01-28T11:01:00;87123.47;;;-1.47;49.50
21623;BME280;10973;46.706;12.340;2023-01-28T11:03:29;87121.06;;;-1.43;48.91
21623;BME280;10973;46.706;12.340;2023-01-28T11:05:58;87116.03;;;-1.40;48.29
21623;BME280;10973;46.706;12.340;2023-01-28T11:08:28;87118.59;;;-1.40;48.40
21623;BME280;10973;46.706;12.340;2023-01-28T11:10:56;87111.31;;;-1.47;48.73
21623;BME280;10973;46.706;12.340;2023-01-28T11:13:29;87109.34;;;-1.50;48.55
21623;BME280;10973;46.706;12.340;2023-01-28T11:16:06;87111.19;;;-1.50;48.60
21623;BME280;10973;46.706;12.340;2023-01-28T11:18:52;87103.13;;;-1.49;48.36
21623;BME280;10973;46.706;12.340;2023-01-28T11:21:29;87101.31;;;-1.48;48.59
21623;BME280;10973;46.706;12.340;2023-01-28T11:24:06;87093.84;;;-1.50;49.24
21623;BME280;10973;46.706;12.340;2023-01-28T11:26:48;87094.28;;;-1.48;49.46
21623;BME280;10973;46.706;12.340;2023-01-28T11:29:33;87085.94;;;-1.45;50.15
21623;BME280;10973;46.706;12.340;2023-01-28T11:32:18;87096.59;;;-1.46;50.56
21623;BME280;10973;46.706;12.340;2023-01-28T11:34:53;87088.06;;;-1.47;50.88
21623;BME280;10973;46.706;12.340;2023-01-28T11:37:30;87079.56;;;-1.47;51.45
21623;BME280;10973;46.706;12.340;2023-01-28T11:40:18;87085.78;;;-1.39;51.50
21623;BME280;10973;46.706;12.340;2023-01-28T11:42:50;87084.84;;;-1.35;51.42
21623;BME280;10973;46.706;12.340;2023-01-28T11:45:48;87077.22;;;-1.23;50.56
21623;BME280;10973;46.706;12.340;2023-01-28T11:48:44;87074.59;;;-1.14;51.08
21623;BME280;10973;46.706;12.340;2023-01-28T11:51:46;87073.03;;;-0.98;52.17
21623;BME280;10973;46.706;12.340;2023-01-28T11:57:25;87066.50;;;-0.66;52.13
21623;BME280;10973;46.706;12.340;2023-01-28T12:00:59;87058.34;;;-0.48;51.95
21623;BME280;10973;46.706;12.340;2023-01-28T12:09:50;87045.09;;;0.16;51.51
21623;BME280;10973;46.706;12.340;2023-01-28T12:12:40;87037.31;;;0.81;50.66
21623;BME280;10973;46.706;12.340;2023-01-28T12:18:42;87029.41;;;2.94;45.82
21623;BME280;10973;46.706;12.340;2023-01-28T12:30:19;87012.16;;;5.13;40.63
21623;BME280;10973;46.706;12.340;2023-01-28T12:33:35;87020.19;;;4.63;40.99
21623;BME280;10973;46.706;12.340;2023-01-28T12:42:39;87034.91;;;2.76;45.09
21623;BME280;10973;46.706;12.340;2023-01-28T12:47:52;87031.44;;;2.17;46.54
21623;BME280;10973;46.706;12.340;2023-01-28T12:51:12;87033.13;;;1.85;47.32
21623;BME280;10973;46.706;12.340;2023-01-28T12:53:59;87028.94;;;1.44;48.61
21623;BME280;10973;46.706;12.340;2023-01-28T12:56:34;87033.47;;;1.23;49.20
21623;BME280;10973;46.706;12.340;2023-01-28T13:04:50;87031.94;;;0.86;50.13
21623;BME280;10973;46.706;12.340;2023-01-28T13:07:31;87035.50;;;0.82;50.21
21623;BME280;10973;46.706;12.340;2023-01-28T13:13:08;87041.31;;;0.79;51.36
21623;BME280;10973;46.706;12.340;2023-01-28T13:15:42;87043.91;;;0.79;51.57
21623;BME280;10973;46.706;12.340;2023-01-28T13:21:29;87039.16;;;0.81;52.26
21623;BME280;10973;46.706;12.340;2023-01-28T13:26:45;87040.78;;;0.85;52.47
21623;BME280;10973;46.706;12.340;2023-01-28T13:31:47;87046.41;;;0.87;52.38
21623;BME280;10973;46.706;12.340;2023-01-28T13:34:38;87044.00;;;0.82;52.83
21623;BME280;10973;46.706;12.340;2023-01-28T13:37:44;87046.59;;;0.82;53.16
21623;BME280;10973;46.706;12.340;2023-01-28T13:42:40;87057.31;;;0.81;53.44
21623;BME280;10973;46.706;12.340;2023-01-28T13:45:21;87055.78;;;0.80;53.27
21623;BME280;10973;46.706;12.340;2023-01-28T13:50:59;87057.91;;;0.65;53.68
21623;BME280;10973;46.706;12.340;2023-01-28T13:54:21;87060.56;;;0.57;53.90
21623;BME280;10973;46.706;12.340;2023-01-28T14:07:06;87067.72;;;0.27;54.26
21623;BME280;10973;46.706;12.340;2023-01-28T14:10:32;87066.97;;;0.27;54.15
21623;BME280;10973;46.706;12.340;2023-01-28T14:18:30;87066.97;;;0.27;54.12
21623;BME280;10973;46.706;12.340;2023-01-28T14:21:09;87064.28;;;0.35;54.37
21623;BME280;10973;46.706;12.340;2023-01-28T14:23:44;87074.91;;;0.42;53.90
21623;BME280;10973;46.706;12.340;2023-01-28T14:27:03;87074.28;;;0.45;54.11
21623;BME280;10973;46.706;12.340;2023-01-28T14:30:07;87076.34;;;0.52;54.37
21623;BME280;10973;46.706;12.340;2023-01-28T14:32:48;87074.72;;;0.47;54.17
21623;BME280;10973;46.706;12.340;2023-01-28T14:35:32;87072.22;;;0.51;54.66
21623;BME280;10973;46.706;12.340;2023-01-28T14:38:08;87077.75;;;0.49;54.31
21623;BME280;10973;46.706;12.340;2023-01-28T14:40:39;87080.44;;;0.53;54.55
21623;BME280;10973;46.706;12.340;2023-01-28T14:43:14;87077.56;;;0.54;54.56
21623;BME280;10973;46.706;12.340;2023-01-28T14:46:06;87088.03;;;0.58;54.72
21623;BME280;10973;46.706;12.340;2023-01-28T14:55:17;87097.78;;;0.61;54.01
21623;BME280;10973;46.706;12.340;2023-01-28T15:00:22;87105.75;;;0.56;53.97
21623;BME280;10973;46.706;12.340;2023-01-28T15:02:51;87100.56;;;0.56;54.25
21623;BME280;10973;46.706;12.340;2023-01-28T15:05:27;87104.34;;;0.58;54.20
21623;BME280;10973;46.706;12.340;2023-01-28T15:07:55;87101.75;;;0.58;54.26
21623;BME280;10973;46.706;12.340;2023-01-28T15:10:34;87103.91;;;0.56;54.01
21623;BME280;10973;46.706;12.340;2023-01-28T15:13:24;87101.31;;;0.56;54.04
21623;BME280;10973;46.706;12.340;2023-01-28T15:15:54;87108.31;;;0.56;54.05